Latest Weather Observations for West Wyalong

IDN60801

Issued at 5:03 pm EDT Monday 23 October 2017 (issued every 30 minutes, with the page automatically refreshed every 10 minutes)

About weather observations | Map of weather stations | Latest weather observations for NSW | Other Formats
Station Details ID: 050017 Name: WEST WYALONG AIRPORT AWS Lat: -33.94 Lon: 147.20 Height: 257.0 m
Data from the previous 72 hours. | See also: Recent months at West Wyalong
Date/Time
EDT
Temp
°C
App
Temp
°C
Dew
Point
°C
Rel
Hum
%
Delta-T
°C
Wind Press
QNH
hPa
Press
MSL
hPa
Rain since
9am
mm
Dir  Spd
km/h
Gust
km/h
Spd
kts
Gust
kts
23/05:00pm 24.9 21.9 1.1 21 11.3 WSW 6 11 3 6 1015.4 1014.9 0.0
23/04:30pm 25.0 21.6 1.8 22 11.2 S 9 17 5 9 1015.5 1015.0 0.0
23/04:00pm 25.2 21.2 0.7 20 11.6 S 11 15 6 8 1015.5 1015.0 0.0
23/03:30pm 24.2 20.6 0.5 21 11.1 SE 9 17 5 9 1015.9 1015.4 0.0
23/03:00pm 24.0 20.3 -0.3 20 11.2 WNW 9 13 5 7 1016.2 1015.7 0.0
23/02:30pm 24.3 20.7 0.6 21 11.1 SSE 9 24 5 13 1016.4 1016.0 0.0
23/02:00pm 23.7 19.0 0.7 22 10.7 SE 15 24 8 13 1016.9 1016.5 0.0
23/01:30pm 22.7 19.8 2.8 27 9.6 ESE 7 13 4 7 1017.2 1016.7 0.0
23/01:00pm 22.7 19.4 2.2 26 9.8 E 9 17 5 9 1017.5 1017.0 0.0
23/12:30pm 22.7 19.6 3.8 29 9.3 E 9 15 5 8 1017.7 1017.2 0.0
23/12:00pm 21.9 18.5 4.0 31 8.8 SSE 11 20 6 11 1018.0 1017.5 0.0
23/11:30am 21.0 17.8 3.2 31 8.6 SSW 9 20 5 11 1018.1 1017.6 0.0
23/11:00am 20.9 17.5 4.0 33 8.2 ENE 11 20 6 11 1018.4 1017.9 0.0
23/10:30am 20.1 15.8 5.4 38 7.3 NE 17 24 9 13 1018.6 1018.1 0.0
23/10:00am 19.3 15.7 6.8 44 6.4 ENE 15 22 8 12 1018.6 1018.1 0.0
23/09:30am 18.0 15.8 8.0 52 5.2 ENE 9 15 5 8 1018.5 1018.0 0.0
23/09:00am 16.4 13.8 7.6 56 4.5 ESE 11 15 6 8 1018.4 1017.9 0.0
23/08:30am 14.7 11.9 8.6 67 3.1 ESE 13 19 7 10 1018.2 1017.7 0.0
23/08:00am 13.2 10.3 8.3 72 2.5 SE 13 19 7 10 1017.9 1017.4 0.0
23/07:30am 11.9 10.3 8.7 81 1.6 SE 7 13 4 7 1017.4 1016.9 0.0
23/07:00am 9.5 7.9 8.1 91 0.7 SSW 6 7 3 4 1017.1 1016.6 0.0
23/06:30am 8.0 5.9 6.8 92 0.6 SSW 7 9 4 5 1016.7 1016.3 0.0
23/06:00am 7.9 5.8 6.7 92 0.6 SSW 7 7 4 4 1016.3 1015.9 0.0
23/05:30am 8.3 5.8 6.6 89 0.8 SSW 9 11 5 6 1016.1 1015.6 0.0
23/05:00am 9.2 6.9 7.3 88 0.9 SW 9 11 5 6 1015.9 1015.4 0.0
23/04:30am 9.5 7.5 7.1 85 1.1 SW 7 11 4 6 1015.7 1015.2 0.0
23/04:00am 10.0 8.0 7.3 83 1.3 SW 7 9 4 5 1015.9 1015.4 0.0
23/03:30am 10.5 8.2 7.4 81 1.5 SSW 9 11 5 6 1015.9 1015.4 0.0
23/03:00am 11.0 8.7 7.3 78 1.8 SSW 9 11 5 6 1015.9 1015.4 0.0
23/02:30am 11.9 9.6 7.4 74 2.2 SW 9 15 5 8 1015.9 1015.4 0.0
23/02:00am 12.6 9.6 7.5 71 2.5 SSW 13 19 7 10 1016.0 1015.5 0.0
23/01:30am 13.2 9.7 7.4 68 2.9 SSW 15 20 8 11 1016.2 1015.7 0.0
23/01:00am 13.5 10.0 7.3 66 3.1 SSW 15 22 8 12 1016.4 1016.0 0.0
23/12:30am 13.6 10.1 7.4 66 3.1 SW 15 20 8 11 1016.4 1016.0 0.0
23/12:00am 14.2 10.6 6.8 61 3.6 SW 15 20 8 11 1016.4 1016.0 0.0
 
Date/Time
EDT
Temp
°C
App
Temp
°C
Dew
Point
°C
Rel
Hum
%
Delta-T
°C
Wind Press
QNH
hPa
Press
MSL
hPa
Rain since
9am
mm
Dir  Spd
km/h
Gust
km/h
Spd
kts
Gust
kts
22/11:30pm 15.1 10.8 6.9 58 4.1 SSW 19 24 10 13 1016.4 1016.0 0.0
22/11:00pm 15.2 11.5 6.5 56 4.3 SSW 15 20 8 11 1016.3 1015.9 0.0
22/10:30pm 15.2 11.9 6.5 56 4.3 SSW 13 17 7 9 1016.2 1015.7 0.0
22/10:00pm 15.3 11.7 6.6 56 4.3 SW 15 19 8 10 1016.0 1015.5 0.0
22/09:30pm 15.5 12.1 6.0 53 4.6 SW 13 15 7 8 1015.8 1015.3 0.0
22/09:00pm 15.8 12.4 6.0 52 4.8 SW 13 17 7 9 1015.5 1015.0 0.0
22/08:30pm 16.3 13.2 5.6 49 5.2 SW 11 15 6 8 1015.2 1014.7 0.0
22/08:00pm 17.5 14.3 5.1 44 6.0 SSW 11 17 6 9 1014.7 1014.2 0.0
22/07:30pm 18.7 14.7 4.8 40 6.8 SSW 15 22 8 12 1014.3 1013.8 0.0
22/07:00pm 19.7 15.0 5.0 38 7.2 SSW 19 28 10 15 1014.0 1013.5 0.0
22/06:30pm 20.7 16.4 5.1 36 7.8 S 17 22 9 12 1013.6 1013.1 0.0
22/06:00pm 20.0 15.1 5.3 38 7.3 SSW 20 28 11 15 1013.4 1012.9 0.0
22/05:30pm 21.5 14.9 4.1 32 8.5 SW 28 33 15 18 1013.3 1012.8 0.0
22/05:00pm 21.5 16.6 5.0 34 8.2 SSW 20 28 11 15 1013.2 1012.7 0.0
22/04:30pm 21.0 15.1 4.1 33 8.3 SW 24 32 13 17 1013.4 1012.9 0.0
22/04:00pm 22.1 17.2 5.1 33 8.5 SW 20 32 11 17 1013.4 1012.9 0.0
22/03:30pm 20.5 15.1 4.5 35 7.9 SSW 22 33 12 18 1013.7 1013.2 0.0
22/03:00pm 21.6 16.6 6.3 37 7.8 SW 22 33 12 18 1014.0 1013.5 0.0
22/02:30pm 20.8 16.1 5.2 36 7.8 SW 19 28 10 15 1014.3 1013.8 0.0
22/02:00pm 20.4 16.3 6.4 40 7.1 SSW 17 32 9 17 1014.6 1014.1 0.0
22/01:30pm 19.7 14.8 5.0 38 7.2 SSW 20 33 11 18 1015.2 1014.7 0.0
22/01:00pm 18.9 14.1 5.7 42 6.6 SSW 20 28 11 15 1015.5 1015.0 0.0
22/12:30pm 18.3 13.8 6.2 45 6.1 WSW 19 28 10 15 1015.6 1015.1 0.0
22/12:00pm 16.9 12.8 6.4 50 5.2 WSW 17 26 9 14 1015.8 1015.3 0.0
22/11:30am 16.4 13.2 6.8 53 4.8 SW 13 20 7 11 1015.9 1015.4 0.0
22/11:00am 15.4 12.2 6.7 56 4.3 WSW 13 20 7 11 1016.2 1015.7 0.0
22/10:30am 14.3 11.1 6.9 61 3.7 WSW 13 19 7 10 1016.4 1016.0 0.0
22/10:00am 13.7 10.2 7.0 64 3.3 SW 15 22 8 12 1016.5 1016.1 0.0
22/09:30am 12.6 9.3 6.4 66 3.0 SW 13 20 7 11 1016.4 1016.0 0.0
22/09:00am 11.0 7.3 6.4 73 2.2 SSW 15 24 8 13 1016.2 1015.7 0.0
22/08:30am 11.0 7.0 6.7 75 2.1 SSW 17 22 9 12 1016.2 1015.7 0.0
22/08:00am 10.4 5.9 6.9 79 1.7 SW 20 28 11 15 1016.1 1015.6 0.0
22/07:30am 9.0 4.9 6.3 83 1.3 WSW 17 24 9 13 1015.9 1015.4 0.0
22/07:00am 7.9 4.5 5.9 87 0.9 SW 13 17 7 9 1015.9 1015.4 0.0
22/06:30am 7.3 3.8 5.4 88 0.9 SW 13 17 7 9 1015.9 1015.4 0.0
22/06:00am 7.2 4.4 5.0 86 1.0 SW 9 13 5 7 1015.6 1015.1 0.0
22/05:30am 7.6 4.8 5.2 85 1.1 WSW 9 13 5 7 1015.4 1014.9 0.0
22/05:00am 7.9 4.7 5.2 83 1.2 W 11 13 6 7 1015.3 1014.8 0.0
22/04:30am 8.2 5.0 5.0 80 1.4 WSW 11 13 6 7 1015.4 1014.9 0.0
22/04:00am 8.5 5.6 4.9 78 1.6 SW 9 13 5 7 1015.7 1015.2 0.0
22/03:30am 9.0 6.2 5.0 76 1.8 SW 9 13 5 7 1015.7 1015.2 0.0
22/03:00am 9.2 6.7 4.8 74 2.0 SSW 7 11 4 6 1016.0 1015.5 0.0
22/02:30am 9.8 6.6 5.2 73 2.1 SW 11 15 6 8 1016.3 1015.9 0.0
22/02:00am 10.3 8.1 5.3 71 2.3 S 6 9 3 5 1016.6 1016.2 0.0
22/01:30am 11.4 7.9 5.5 67 2.8 SSW 13 17 7 9 1017.1 1016.6 0.0
22/01:00am 12.1 8.2 5.5 64 3.1 SSW 15 22 8 12 1017.4 1016.9 0.0
22/12:30am 12.8 8.6 5.7 62 3.4 SSW 17 26 9 14 1017.4 1016.9 0.0
22/12:00am 13.2 9.0 5.9 61 3.5 SSW 17 22 9 12 1017.4 1016.9 0.0
 
Date/Time
EDT
Temp
°C
App
Temp
°C
Dew
Point
°C
Rel
Hum
%
Delta-T
°C
Wind Press
QNH
hPa
Press
MSL
hPa
Rain since
9am
mm
Dir  Spd
km/h
Gust
km/h
Spd
kts
Gust
kts
21/11:30pm 13.9 9.4 6.0 59 3.8 SSW 19 26 10 14 1017.5 1017.0 0.0
21/11:00pm 14.7 9.9 5.8 55 4.3 SSW 20 28 11 15 1017.6 1017.1 0.0
21/10:30pm 14.3 10.8 5.4 55 4.3 SW 13 17 7 9 1017.5 1017.0 0.0
21/10:00pm 14.8 11.2 4.8 51 4.7 WSW 13 15 7 8 1017.5 1017.0 0.0
21/09:30pm 15.1 11.8 4.8 50 4.9 WSW 11 15 6 8 1017.6 1017.1 0.0
21/09:00pm 15.6 12.3 4.6 48 5.2 WSW 11 13 6 7 1017.6 1017.1 0.0
21/08:30pm 16.7 13.4 4.7 45 5.8 WSW 11 13 6 7 1017.5 1017.0 0.0
21/08:00pm 17.9 13.8 4.5 41 6.4 SW 15 20 8 11 1017.3 1016.8 0.0
21/07:30pm 19.2 14.9 5.3 40 6.9 SW 17 24 9 13 1017.2 1016.7 0.0
21/07:00pm 20.3 15.8 5.9 39 7.2 SW 19 30 10 16 1016.9 1016.5 0.0
21/06:30pm 21.6 17.1 6.3 37 7.8 SSW 19 26 10 14 1016.8 1016.4 0.0
21/06:00pm 21.8 17.5 6.9 38 7.7 SSW 19 28 10 15 1016.9 1016.5 0.0
21/05:30pm 22.4 18.8 6.6 36 8.2 SSW 15 26 8 14 1017.2 1016.7 0.0
21/05:00pm 21.7 17.6 6.4 37 7.8 SSW 17 28 9 15 1017.3 1016.8 0.0
21/04:30pm 22.3 18.3 6.5 36 8.2 SW 17 28 9 15 1017.6 1017.1 0.0
21/04:00pm 21.6 18.1 7.1 39 7.5 SSW 15 24 8 13 1017.9 1017.4 0.0
21/03:30pm 22.7 19.2 7.3 37 8.1 SSW 15 22 8 12 1018.1 1017.6 0.0
21/03:00pm 22.3 18.8 7.3 38 7.8 S 15 22 8 12 1018.6 1018.1 0.0
21/02:30pm 22.7 19.5 6.9 36 8.2 SSW 13 24 7 13 1019.2 1018.7 0.0
21/02:00pm 21.0 17.2 7.6 42 7.0 S 17 28 9 15 1019.5 1019.0 0.0
21/01:30pm 21.6 18.9 8.8 44 6.9 SSW 13 24 7 13 1019.9 1019.5 0.0
21/01:00pm 21.2 18.2 7.8 42 7.0 S 13 22 7 12 1020.3 1019.9 0.0
21/12:30pm 20.6 17.4 6.9 41 7.0 SSE 13 22 7 12 1020.7 1020.3 0.0
21/12:00pm 20.6 18.5 8.3 45 6.5 S 9 19 5 10 1021.0 1020.6 0.0
21/11:30am 19.6 17.4 8.0 47 6.1 S 9 17 5 9 1021.5 1021.0 0.0
21/11:00am 18.7 16.4 7.5 48 5.7 SE 9 19 5 10 1021.8 1021.3 0.0
21/10:30am 18.0 16.1 7.7 51 5.3 SSE 7 13 4 7 1021.8 1021.3 0.0
21/10:00am 17.5 15.0 8.4 55 4.7 SE 11 15 6 8 1021.9 1021.4 0.0
21/09:30am 16.1 13.1 7.8 58 4.2 ESE 13 19 7 10 1021.9 1021.4 0.0
21/09:00am 15.3 11.6 8.1 62 3.7 ESE 17 20 9 11 1021.9 1021.4 0.0
21/08:30am 14.3 11.1 8.3 67 3.0 ESE 15 24 8 13 1021.9 1021.4 0.0
21/08:00am 13.4 10.7 8.9 74 2.3 ESE 13 17 7 9 1021.7 1021.2 0.0
21/07:30am 11.7 9.7 8.6 81 1.6 SE 9 13 5 7 1021.7 1021.2 0.0
21/07:00am 10.5 8.5 8.6 88 0.9 SE 9 11 5 6 1021.6 1021.1 0.0
21/06:30am 9.4 7.6 8.0 91 0.7 SSE 7 11 4 6 1021.6 1021.1 0.0
21/06:00am 9.7 7.6 8.1 90 0.8 SE 9 11 5 6 1021.4 1020.9 0.0
21/05:30am 10.1 8.0 8.2 88 0.9 ESE 9 15 5 8 1021.3 1020.8 0.0
21/05:00am 10.8 8.4 8.6 86 1.1 ESE 11 17 6 9 1021.3 1020.8 0.0
21/04:30am 11.2 8.1 8.8 85 1.2 ESE 15 17 8 9 1021.2 1020.7 0.0
21/04:00am 11.0 8.3 8.9 87 1.1 ESE 13 17 7 9 1021.4 1020.9 0.0
21/03:30am 11.1 8.4 9.0 87 1.1 SE 13 17 7 9 1021.7 1021.2 0.0
21/03:00am 11.3 9.1 9.2 87 1.1 SE 11 15 6 8 1022.0 1021.5 0.0
21/02:30am 11.4 8.7 9.1 86 1.2 SSE 13 13 7 7 1022.1 1021.6 0.0
21/02:00am 11.8 9.6 9.4 85 1.2 S 11 17 6 9 1022.4 1021.9 0.0
21/01:30am 11.9 9.7 9.3 84 1.3 S 11 15 6 8 1022.6 1022.1 0.0
21/01:00am 11.5 8.9 7.6 77 1.9 SSW 11 15 6 8 1022.8 1022.3 0.0
21/12:30am 11.8 8.7 7.3 74 2.2 S 13 15 7 8 1022.8 1022.3 0.0
21/12:00am 12.1 9.2 6.6 69 2.6 SSW 11 15 6 8 1022.9 1022.4 0.0
 
Date/Time
EDT
Temp
°C
App
Temp
°C
Dew
Point
°C
Rel
Hum
%
Delta-T
°C
Wind Press
QNH
hPa
Press
MSL
hPa
Rain since
9am
mm
Dir  Spd
km/h
Gust
km/h
Spd
kts
Gust
kts
20/11:30pm 12.9 9.6 6.3 64 3.2 S 13 20 7 11 1022.9 1022.4 0.0
20/11:00pm 13.4 9.9 5.6 59 3.7 SSW 13 17 7 9 1022.9 1022.4 0.0
20/10:30pm 13.7 9.4 5.1 56 4.1 SW 17 20 9 11 1022.5 1022.0 0.0
20/10:00pm 14.0 9.9 4.6 53 4.4 SW 15 20 8 11 1022.4 1021.9 0.0
20/09:30pm 14.6 10.1 4.0 49 4.9 SW 17 20 9 11 1022.3 1021.8 0.0
20/09:00pm 14.6 10.8 4.0 49 4.9 SW 13 17 7 9 1022.2 1021.7 0.0
20/08:30pm 15.9 11.6 3.0 42 5.9 SSW 15 20 8 11 1022.0 1021.5 0.0
20/08:00pm 16.8 11.9 2.0 37 6.7 SSW 17 22 9 12 1021.5 1021.0 0.0
20/07:30pm 17.6 12.2 2.4 36 7.0 SW 20 30 11 16 1021.0 1020.6 0.0
20/07:00pm 18.9 12.8 2.7 34 7.6 SSW 24 37 13 20 1020.4 1020.0 0.0
20/06:30pm 20.0 13.8 4.5 36 7.6 SSW 26 35 14 19 1020.2 1019.8 0.0
20/06:00pm 20.8 14.3 4.8 35 7.9 SW 28 39 15 21 1019.9 1019.5 0.0
20/05:30pm 21.7 15.7 5.2 34 8.3 SW 26 41 14 22 1019.7 1019.3 0.0

Other Formats:

Comma delimited format used in spreadsheet applications
http://www.bom.gov.au/fwo/IDN60801/IDN60801.95709.axf

JavaScript Object Notation format (JSON) in row-major order
http://www.bom.gov.au/fwo/IDN60801/IDN60801.95709.json